29  °C
Temperature
84  °F
Temperature
59  °F
 Dewpoint
15  °C
  Dewpoint
43  %
 Humidity
  Temperature
11  km/h
Wind Speed
6  kts
Wind Speed
7  mph
Wind Speed
3.1  m/s
Wind Speed
280°
Due West

Wind Speed
Clear
Conditions
Pressure 1014.92 (hPa) - 29.97 (inHG)
Visibility 10.0 (km) - 6.2 (mi)

Sky Conditions
LGSA
Location Chania International 80 km (49.72 mi)
Metar :LGSA 171250Z 28006KT CAVOK 29/15 Q1015
Tue 17th September 15:50 pm

Nearest Airport
https://www.checkwx.com/weather/LGSA
  Metar Aviation API Data Provided by https://www.checkwx.com/ Original CSS/SVG/PHP scripts by weather34.com © 2015-2019